Time;durP1;ratioP1;P1;durP2;ratioP2;P2;SDS_P1;SDS_P2;PMS_P1;PMS_P2;Temp;Humidity;BMP_temperature;BMP_pressure;BME280_temperature;BME280_humidity;BME280_pressure;Samples;Min_cycle;Max_cycle;Signal;HPM_P1;HPM_P2
2023/10/14 08:46:35;;;;;;;16.98;2.70;;;18.10;84.50;;;;;;7339121;19;19999;-79
2023/10/14 08:55:57;;;;;;;10.90;2.40;;;18.10;83.90;;;;;;7403484;19;20116;-80
2023/10/14 09:29:56;;;;;;;10.27;2.27;;;18.50;83.20;;;;;;7359210;19;20304;-79
2023/10/14 09:49:54;;;;;;;12.27;2.25;;;18.80;81.30;;;;;;7371008;19;20030;-78
2023/10/14 10:04:37;;;;;;;18.55;2.67;;;19.00;76.40;;;;;;7310760;19;20255;-78
2023/10/14 10:07:30;;;;;;;9.80;2.45;;;18.80;76.60;;;;;;7409721;19;20015;-82
2023/10/14 10:10:19;;;;;;;9.88;2.58;;;18.60;78.20;;;;;;7373945;19;19999;-79
2023/10/14 10:12:55;;;;;;;19.13;2.47;;;18.60;78.40;;;;;;7388583;19;20006;-78
2023/10/14 10:15:26;;;;;;;13.57;2.38;;;18.40;78.50;;;;;;7388825;19;20410;-77
2023/10/14 10:18:06;;;;;;;15.70;2.58;;;18.40;78.80;;;;;;7387687;19;20018;-78
2023/10/14 10:20:40;;;;;;;14.38;2.20;;;18.70;79.40;;;;;;7413668;19;20034;-78
2023/10/14 10:26:28;;;;;;;10.90;2.22;;;18.70;78.60;;;;;;7387987;19;20250;-81
2023/10/14 10:28:59;;;;;;;11.38;1.95;;;18.80;78.40;;;;;;7391358;19;20007;-78
2023/10/14 10:31:28;;;;;;;15.23;2.72;;;18.60;78.40;;;;;;7386220;19;20019;-78
2023/10/14 10:34:02;;;;;;;20.50;2.15;;;18.60;78.40;;;;;;7385929;19;20396;-78
2023/10/14 10:36:32;;;;;;;14.52;2.50;;;18.70;79.00;;;;;;7390617;19;20027;-77
2023/10/14 10:39:15;;;;;;;13.57;2.20;;;18.60;77.00;;;;;;7395098;19;20031;-78
2023/10/14 10:41:47;;;;;;;20.13;1.85;;;18.40;76.90;;;;;;7393712;19;20252;-78
2023/10/14 10:44:18;;;;;;;12.55;2.40;;;18.40;77.50;;;;;;7420577;19;20361;-78
2023/10/14 10:46:50;;;;;;;13.55;2.72;;;18.60;77.70;;;;;;7393174;19;20024;-77
2023/10/14 10:49:54;;;;;;;11.43;1.92;;;18.60;77.70;;;;;;7386267;19;20398;-80
2023/10/14 10:52:27;;;;;;;8.02;2.10;;;18.70;77.50;;;;;;7384826;19;20011;-76
2023/10/14 10:54:59;;;;;;;18.53;2.70;;;18.90;77.50;;;;;;7383493;19;20030;-76
2023/10/14 10:57:28;;;;;;;10.60;2.28;;;18.80;78.40;;;;;;7383714;19;20239;-77
2023/10/14 10:59:57;;;;;;;15.15;2.28;;;18.90;77.90;;;;;;7383733;19;20006;-77
2023/10/14 11:02:29;;;;;;;12.45;2.30;;;19.10;77.00;;;;;;7404793;19;20059;-77
2023/10/14 11:04:58;;;;;;;19.10;2.30;;;19.10;77.60;;;;;;7381718;19;20003;-77
2023/10/14 11:07:28;;;;;;;15.85;2.17;;;19.20;76.60;;;;;;7383350;19;20026;-77
2023/10/14 11:10:00;;;;;;;16.25;2.65;;;19.10;76.10;;;;;;7382831;19;19998;-77
2023/10/14 11:12:29;;;;;;;15.35;2.33;;;19.10;76.80;;;;;;7382210;19;20007;-77
2023/10/14 11:14:58;;;;;;;13.55;2.13;;;19.10;77.50;;;;;;7383411;19;20007;-79
2023/10/14 11:17:28;;;;;;;13.15;1.88;;;19.00;78.00;;;;;;7402150;19;20003;-77
2023/10/14 11:19:56;;;;;;;16.00;2.30;;;19.00;77.90;;;;;;7385372;19;20350;-77
2023/10/14 11:22:26;;;;;;;17.10;2.30;;;18.80;78.20;;;;;;7382345;19;20048;-77
2023/10/14 11:24:58;;;;;;;21.30;3.22;;;18.80;77.20;;;;;;7383076;19;20021;-77
2023/10/14 11:27:31;;;;;;;15.40;2.25;;;18.90;78.00;;;;;;7382493;19;20010;-77
2023/10/14 11:29:59;;;;;;;12.50;2.05;;;18.70;78.60;;;;;;7382725;19;20356;-77
2023/10/14 11:32:29;;;;;;;6.85;1.80;;;18.90;78.10;;;;;;7404107;19;20006;-79
2023/10/14 11:34:58;;;;;;;13.00;1.88;;;18.90;78.50;;;;;;7381765;19;20019;-77
2023/10/14 11:37:29;;;;;;;7.28;2.00;;;19.00;78.20;;;;;;7388576;19;20058;-77
2023/10/14 11:39:58;;;;;;;12.65;1.90;;;19.00;77.60;;;;;;7384290;19;20003;-79
2023/10/14 11:42:29;;;;;;;11.18;1.90;;;18.90;78.30;;;;;;7383397;19;20014;-77
2023/10/14 11:44:58;;;;;;;13.95;2.45;;;18.80;78.30;;;;;;7382257;19;20028;-77
2023/10/14 11:47:36;;;;;;;13.90;2.17;;;18.60;79.10;;;;;;7403801;19;20014;-77
2023/10/14 11:50:14;;;;;;;10.00;2.42;;;18.60;82.60;;;;;;7382346;19;20023;-79
2023/10/14 11:52:44;;;;;;;9.85;2.38;;;18.60;86.00;;;;;;7382123;19;20058;-77
2023/10/14 11:55:15;;;;;;;11.77;2.35;;;18.10;87.50;;;;;;7381800;19;20358;-76
2023/10/14 11:57:49;;;;;;;14.00;2.67;;;18.00;89.90;;;;;;7380983;19;20070;-77
2023/10/14 12:00:20;;;;;;;18.30;3.17;;;18.00;90.30;;;;;;7381437;19;20011;-76
2023/10/14 12:02:49;;;;;;;10.85;2.70;;;18.10;90.60;;;;;;7380859;19;20010;-76
2023/10/14 12:05:19;;;;;;;14.18;2.20;;;18.10;90.20;;;;;;7399699;19;20350;-76
2023/10/14 12:07:48;;;;;;;9.88;2.28;;;17.90;90.00;;;;;;7380727;19;20002;-76
2023/10/14 12:10:17;;;;;;;8.10;2.10;;;17.90;90.00;;;;;;7381942;19;20070;-76
2023/10/14 12:12:54;;;;;;;12.82;2.75;;;17.80;89.20;;;;;;7381083;19;20017;-79
2023/10/14 12:15:23;;;;;;;15.25;2.22;;;17.50;88.60;;;;;;7382868;19;20022;-79
2023/10/14 12:17:52;;;;;;;16.40;2.78;;;17.70;89.10;;;;;;7381229;19;20034;-78
2023/10/14 12:20:25;;;;;;;9.75;2.67;;;17.90;89.20;;;;;;7407635;19;20017;-79
2023/10/14 12:22:54;;;;;;;16.13;2.67;;;18.00;88.30;;;;;;7380692;19;20007;-76
2023/10/14 12:25:23;;;;;;;12.93;2.17;;;18.10;87.90;;;;;;7381409;19;20014;-77
2023/10/14 12:27:55;;;;;;;16.05;2.78;;;18.10;87.00;;;;;;7382177;19;20223;-78
2023/10/14 12:30:39;;;;;;;10.02;2.35;;;18.00;87.70;;;;;;7382941;19;20107;-78
2023/10/14 12:33:15;;;;;;;10.88;2.25;;;17.90;87.50;;;;;;7380182;19;20010;-80
2023/10/14 12:35:44;;;;;;;11.60;2.38;;;17.70;88.60;;;;;;7394709;19;20010;-79
2023/10/14 12:38:16;;;;;;;19.52;2.58;;;17.30;89.90;;;;;;7402741;19;20254;-76
2023/10/14 12:40:45;;;;;;;10.07;2.03;;;17.20;90.40;;;;;;7380884;19;20010;-77
2023/10/14 12:43:18;;;;;;;11.20;2.03;;;17.10;90.50;;;;;;7381748;19;20003;-76
2023/10/14 12:45:51;;;;;;;9.63;1.92;;;17.00;90.50;;;;;;7381815;19;20028;-77
2023/10/14 12:48:24;;;;;;;10.20;1.45;;;17.20;90.50;;;;;;7382117;19;20468;-77
2023/10/14 12:50:53;;;;;;;8.00;1.88;;;17.40;90.10;;;;;;7380396;19;20023;-76
2023/10/14 12:53:21;;;;;;;8.13;1.20;;;17.50;89.90;;;;;;7403090;19;20039;-77
2023/10/14 12:55:50;;;;;;;7.57;2.00;;;17.70;89.90;;;;;;7379036;19;20010;-76
2023/10/14 12:58:23;;;;;;;8.13;1.50;;;18.00;90.00;;;;;;7380389;19;19999;-77
2023/10/14 13:00:51;;;;;;;3.67;1.25;;;18.30;89.10;;;;;;7379549;19;20007;-77
2023/10/14 13:03:23;;;;;;;8.48;1.50;;;18.40;87.10;;;;;;7378259;19;20023;-77
2023/10/14 13:05:52;;;;;;;6.88;1.20;;;18.50;86.40;;;;;;7379247;19;20063;-76
2023/10/14 13:08:21;;;;;;;4.60;1.30;;;18.70;85.50;;;;;;7400545;19;20003;-77
2023/10/14 13:10:50;;;;;;;4.65;1.38;;;18.80;86.00;;;;;;7378630;19;20003;-77
2023/10/14 13:13:21;;;;;;;9.55;1.48;;;18.90;84.10;;;;;;7380198;19;20027;-77
2023/10/14 13:15:53;;;;;;;5.60;1.90;;;19.10;84.30;;;;;;7379418;19;20015;-77
2023/10/14 13:18:24;;;;;;;8.23;1.35;;;19.20;84.20;;;;;;7386015;19;20019;-79
2023/10/14 13:20:58;;;;;;;8.48;1.60;;;18.80;81.30;;;;;;7387292;19;20018;-77
2023/10/14 13:23:27;;;;;;;12.07;2.05;;;18.60;82.90;;;;;;7409051;19;20027;-77
2023/10/14 13:25:58;;;;;;;11.02;1.90;;;18.70;84.50;;;;;;7386627;19;20015;-77
2023/10/14 13:28:32;;;;;;;9.63;1.83;;;18.70;84.10;;;;;;7386679;19;20371;-77
2023/10/14 13:31:01;;;;;;;10.35;2.30;;;18.80;84.40;;;;;;7386090;19;20017;-77
2023/10/14 13:33:29;;;;;;;12.75;1.45;;;18.70;83.40;;;;;;7387123;19;20016;-79
2023/10/14 13:35:58;;;;;;;7.05;1.98;;;18.80;83.80;;;;;;7386778;19;20030;-77
2023/10/14 13:38:27;;;;;;;10.07;2.10;;;18.70;84.10;;;;;;7405647;19;20006;-78
2023/10/14 13:40:56;;;;;;;6.60;1.92;;;18.80;84.10;;;;;;7385414;19;20010;-77
2023/10/14 13:43:25;;;;;;;13.35;2.17;;;18.80;83.30;;;;;;7386106;19;20064;-76
2023/10/14 13:45:56;;;;;;;9.35;1.77;;;18.80;83.40;;;;;;7386193;19;20252;-77
2023/10/14 13:48:26;;;;;;;4.55;1.63;;;19.00;83.40;;;;;;7386120;19;20006;-76
2023/10/14 13:50:55;;;;;;;5.80;1.77;;;19.10;84.10;;;;;;7387115;19;20015;-77
2023/10/14 13:53:25;;;;;;;8.25;1.42;;;19.10;82.10;;;;;;7407879;19;20017;-76
2023/10/14 13:55:54;;;;;;;8.30;1.45;;;19.10;78.30;;;;;;7384946;19;20030;-76
2023/10/14 13:58:23;;;;;;;4.82;1.20;;;19.20;75.60;;;;;;7385403;19;20013;-76
2023/10/14 14:00:52;;;;;;;11.77;1.90;;;19.10;73.80;;;;;;7385955;19;20387;-76
2023/10/14 14:03:28;;;;;;;4.07;1.38;;;19.00;75.30;;;;;;7383428;19;20016;-77
2023/10/14 14:05:57;;;;;;;6.70;1.65;;;19.10;75.80;;;;;;7384476;19;20358;-77
2023/10/14 14:08:27;;;;;;;4.80;1.23;;;19.20;74.60;;;;;;7407842;19;20018;-77
2023/10/14 14:11:00;;;;;;;6.72;1.55;;;19.40;73.60;;;;;;7385309;19;20003;-78
2023/10/14 14:13:29;;;;;;;7.00;1.30;;;19.50;72.70;;;;;;7391269;19;20003;-77
2023/10/14 14:16:01;;;;;;;6.28;1.20;;;19.70;71.20;;;;;;7388240;19;20063;-77
2023/10/14 14:18:32;;;;;;;5.68;0.95;;;19.40;70.60;;;;;;7389205;19;20083;-77
2023/10/14 14:21:01;;;;;;;;;;;19.20;71.70;;;;;;7386425;19;20007;-77
2023/10/14 14:23:30;;;;;;;3.33;1.40;;;19.10;73.50;;;;;;7407532;19;19927;-78
2023/10/14 14:25:59;;;;;;;6.18;1.42;;;19.00;73.70;;;;;;7384820;19;20014;-77
2023/10/14 14:28:28;;;;;;;3.50;0.77;;;19.00;74.00;;;;;;7383940;19;20034;-79
2023/10/14 14:30:56;;;;;;;8.05;1.15;;;18.80;73.50;;;;;;7384755;19;20020;-77
2023/10/14 14:33:27;;;;;;;8.48;1.52;;;18.60;74.80;;;;;;7385118;19;20007;-77
2023/10/14 14:35:59;;;;;;;3.45;1.23;;;18.20;78.00;;;;;;7384664;19;20014;-77
2023/10/14 14:38:29;;;;;;;7.45;1.20;;;17.80;81.30;;;;;;7407444;19;20024;-77
2023/10/14 14:40:58;;;;;;;7.20;1.60;;;17.80;81.30;;;;;;7387796;19;20003;-77
2023/10/14 14:43:27;;;;;;;6.20;1.27;;;18.00;82.40;;;;;;7385731;19;20014;-75
2023/10/14 14:45:57;;;;;;;4.88;1.63;;;17.80;83.10;;;;;;7385362;19;20067;-77
2023/10/14 14:48:25;;;;;;;5.53;1.20;;;17.60;82.40;;;;;;7385603;19;20362;-77
2023/10/14 14:50:54;;;;;;;6.00;1.20;;;17.90;82.50;;;;;;7386123;19;20018;-76
2023/10/14 14:53:25;;;;;;;5.72;1.38;;;18.10;81.30;;;;;;7408251;19;20009;-77
2023/10/14 14:55:54;;;;;;;4.32;1.23;;;18.20;81.70;;;;;;7389522;19;20016;-77
2023/10/14 14:58:23;;;;;;;12.52;1.67;;;18.30;81.10;;;;;;7388059;19;20074;-77
2023/10/14 15:00:52;;;;;;;4.90;1.33;;;18.50;80.70;;;;;;7387868;19;20039;-77
2023/10/14 15:03:20;;;;;;;4.45;1.30;;;18.50;80.40;;;;;;7392111;19;20030;-77
2023/10/14 15:05:51;;;;;;;6.70;1.08;;;18.40;79.30;;;;;;7384573;19;20024;-77
2023/10/14 15:08:24;;;;;;;3.67;0.88;;;18.50;79.40;;;;;;7407846;19;20027;-77
2023/10/14 15:10:57;;;;;;;5.45;0.90;;;18.60;79.50;;;;;;7386762;19;20003;-77
2023/10/14 15:13:26;;;;;;;3.42;1.08;;;18.50;78.50;;;;;;7385707;19;20426;-76
2023/10/14 15:15:56;;;;;;;3.63;1.20;;;18.50;78.30;;;;;;7384025;19;20442;-77
2023/10/14 15:18:24;;;;;;;2.53;0.90;;;18.50;78.30;;;;;;7386803;19;20007;-77
2023/10/14 15:20:54;;;;;;;5.38;1.17;;;18.50;77.60;;;;;;7385079;19;20019;-77
2023/10/14 15:23:24;;;;;;;13.77;3.50;;;18.50;78.00;;;;;;7404460;19;20013;-76
2023/10/14 15:25:55;;;;;;;6.15;1.90;;;18.60;78.50;;;;;;7383304;19;20006;-77
2023/10/14 15:28:27;;;;;;;4.13;1.30;;;18.50;78.60;;;;;;7383927;19;20401;-76
2023/10/14 15:30:55;;;;;;;5.65;1.00;;;18.60;79.00;;;;;;7386406;19;20007;-77
2023/10/14 15:33:24;;;;;;;6.70;1.30;;;18.50;78.80;;;;;;7384145;19;19999;-77
2023/10/14 15:35:53;;;;;;;12.25;1.45;;;18.60;78.60;;;;;;7384341;19;20007;-76
2023/10/14 15:38:22;;;;;;;3.58;1.25;;;18.50;77.70;;;;;;7404582;19;20020;-77
2023/10/14 15:40:51;;;;;;;4.57;1.48;;;18.50;78.00;;;;;;7382853;19;20007;-77
2023/10/14 15:43:22;;;;;;;6.60;1.30;;;18.60;78.60;;;;;;7383355;19;20010;-78
2023/10/14 15:45:52;;;;;;;;;;;18.60;78.30;;;;;;7383956;19;20002;-77
2023/10/14 15:48:21;;;;;;;3.95;1.33;;;18.70;78.60;;;;;;7385041;19;19907;-78
2023/10/14 15:50:50;;;;;;;5.43;1.30;;;18.80;78.30;;;;;;7380776;19;20062;-76
2023/10/14 15:53:18;;;;;;;3.15;1.25;;;18.80;77.90;;;;;;7404474;19;20031;-78
2023/10/14 15:55:47;;;;;;;5.57;1.67;;;18.70;78.00;;;;;;7383894;19;20016;-76
2023/10/14 15:58:16;;;;;;;6.47;1.30;;;18.60;78.20;;;;;;7382524;19;20011;-77
2023/10/14 16:00:50;;;;;;;3.85;1.00;;;18.70;78.30;;;;;;7383830;19;20009;-78
2023/10/14 16:03:20;;;;;;;3.40;1.33;;;18.50;78.30;;;;;;7385122;19;20026;-80
2023/10/14 16:05:55;;;;;;;4.63;1.27;;;18.50;78.90;;;;;;7381952;19;20024;-78
2023/10/14 16:08:24;;;;;;;4.25;1.58;;;18.50;79.00;;;;;;7406126;19;20034;-77
2023/10/14 16:10:53;;;;;;;4.38;1.33;;;18.40;78.70;;;;;;7381796;19;20006;-78
2023/10/14 16:13:23;;;;;;;9.60;1.48;;;18.50;78.80;;;;;;7383076;19;20002;-77
2023/10/14 16:15:55;;;;;;;5.60;1.58;;;18.50;78.80;;;;;;7382096;19;20154;-81
2023/10/14 16:18:24;;;;;;;4.32;1.38;;;18.50;78.70;;;;;;7384965;19;20010;-81
2023/10/14 16:20:53;;;;;;;3.63;1.35;;;18.50;78.80;;;;;;7381376;19;20019;-78
2023/10/14 16:23:22;;;;;;;4.55;1.27;;;18.50;79.20;;;;;;7403296;19;20020;-78
2023/10/14 16:25:51;;;;;;;5.22;1.77;;;18.50;79.20;;;;;;7380684;19;20030;-77
2023/10/14 16:28:22;;;;;;;5.57;1.40;;;18.50;79.50;;;;;;7381493;19;20002;-77
2023/10/14 16:30:50;;;;;;;3.88;1.38;;;18.40;79.50;;;;;;7383405;19;20030;-77
2023/10/14 16:33:22;;;;;;;3.65;1.05;;;18.40;79.60;;;;;;7383293;19;20082;-78
2023/10/14 16:35:52;;;;;;;2.28;1.35;;;18.30;79.70;;;;;;7382061;19;20385;-77
2023/10/14 16:38:23;;;;;;;4.75;1.48;;;18.30;80.10;;;;;;7401191;19;20010;-77
2023/10/14 16:40:55;;;;;;;;;;;18.30;80.40;;;;;;7381920;19;19999;-78
2023/10/14 16:43:24;;;;;;;4.30;1.52;;;18.40;80.60;;;;;;7381223;19;19906;-77
2023/10/14 16:45:54;;;;;;;9.65;4.40;;;18.30;79.80;;;;;;7380192;19;20357;-77
2023/10/14 16:48:25;;;;;;;5.68;1.70;;;18.40;80.40;;;;;;7383033;19;20373;-76
2023/10/14 16:50:55;;;;;;;;;;;18.30;80.00;;;;;;7385252;19;20023;-77
2023/10/14 16:53:27;;;;;;;6.30;1.38;;;17.90;80.90;;;;;;7407055;19;20203;-77
2023/10/14 16:55:56;;;;;;;3.80;1.25;;;17.20;82.60;;;;;;7388756;19;20006;-78
2023/10/14 16:58:25;;;;;;;6.05;1.40;;;16.90;84.80;;;;;;7389873;19;20007;-77
2023/10/14 17:00:54;;;;;;;6.80;1.70;;;16.80;85.80;;;;;;7396307;19;20006;-78
2023/10/14 17:03:26;;;;;;;2.67;1.30;;;16.70;86.20;;;;;;7400545;19;20017;-78
2023/10/14 17:05:56;;;;;;;4.32;1.27;;;16.80;87.30;;;;;;7386183;19;20374;-78
2023/10/14 17:08:30;;;;;;;5.57;1.33;;;16.80;88.00;;;;;;7410816;19;20062;-77
2023/10/14 17:10:59;;;;;;;4.03;1.30;;;16.90;88.00;;;;;;7387815;19;20034;-77
2023/10/14 17:13:28;;;;;;;4.95;1.50;;;17.00;88.20;;;;;;7387373;19;19999;-78
2023/10/14 17:15:57;;;;;;;5.65;1.20;;;17.10;88.40;;;;;;7388326;19;20268;-78
2023/10/14 17:18:28;;;;;;;6.90;1.55;;;17.10;88.10;;;;;;7387936;19;20296;-77
2023/10/14 17:20:57;;;;;;;7.45;1.40;;;17.20;88.20;;;;;;7389282;19;20010;-78
2023/10/14 17:23:25;;;;;;;5.00;1.30;;;17.20;88.20;;;;;;7407447;19;20014;-77
2023/10/14 17:25:59;;;;;;;5.13;1.42;;;17.20;88.40;;;;;;7386676;19;20002;-77
2023/10/14 17:28:28;;;;;;;2.58;1.20;;;17.30;88.90;;;;;;7386109;19;20049;-77
2023/10/14 17:30:57;;;;;;;6.95;1.17;;;17.20;88.80;;;;;;7386111;19;20011;-77
2023/10/14 17:33:29;;;;;;;5.75;1.70;;;17.20;89.20;;;;;;7387103;19;20080;-76
2023/10/14 17:35:57;;;;;;;3.55;1.30;;;17.20;88.60;;;;;;7386494;19;20015;-76
2023/10/14 17:38:27;;;;;;;7.57;1.85;;;17.20;88.80;;;;;;7404672;19;20367;-77
2023/10/14 17:40:56;;;;;;;8.40;1.55;;;17.20;88.80;;;;;;7384575;19;20033;-77
2023/10/14 17:43:25;;;;;;;11.32;1.88;;;17.20;89.50;;;;;;7385762;19;20129;-78
2023/10/14 17:45:53;;;;;;;3.83;1.70;;;17.20;89.10;;;;;;7385577;19;20007;-77
2023/10/14 17:48:22;;;;;;;4.07;1.90;;;17.20;89.00;;;;;;7383576;19;20050;-77
2023/10/14 17:50:54;;;;;;;5.78;1.73;;;17.30;89.10;;;;;;7385925;19;20066;-77
2023/10/14 17:53:25;;;;;;;8.68;2.15;;;17.20;89.00;;;;;;7407670;19;20014;-77
2023/10/14 17:55:56;;;;;;;9.25;2.15;;;17.30;89.00;;;;;;7384706;19;20003;-78
2023/10/14 17:58:25;;;;;;;7.55;1.88;;;17.30;89.10;;;;;;7383466;19;20024;-77
2023/10/14 18:00:53;;;;;;;9.18;1.85;;;17.30;89.60;;;;;;7385051;19;20272;-77
2023/10/14 18:03:22;;;;;;;8.88;2.30;;;17.30;89.70;;;;;;7382860;19;20042;-77
2023/10/14 18:05:53;;;;;;;6.40;1.88;;;17.30;90.00;;;;;;7382837;19;20007;-76
2023/10/14 18:08:23;;;;;;;7.65;2.10;;;17.30;90.10;;;;;;7406429;19;20023;-79
2023/10/14 18:10:54;;;;;;;9.98;1.95;;;17.30;90.30;;;;;;7383728;19;20003;-77
2023/10/14 18:13:26;;;;;;;6.38;2.60;;;17.40;90.50;;;;;;7383918;19;20059;-77
2023/10/14 18:15:56;;;;;;;7.30;3.13;;;17.40;90.50;;;;;;7384695;19;20048;-77
2023/10/14 18:18:25;;;;;;;14.13;3.90;;;17.40;90.30;;;;;;7383161;19;20003;-77
2023/10/14 18:20:58;;;;;;;17.67;7.22;;;17.40;90.10;;;;;;7382239;19;20030;-76
2023/10/14 18:23:26;;;;;;;16.25;6.40;;;17.40;90.20;;;;;;7406494;19;20007;-77
2023/10/14 18:25:58;;;;;;;16.20;3.63;;;17.40;90.30;;;;;;7383199;19;20006;-76
2023/10/14 18:28:28;;;;;;;8.07;3.40;;;17.40;90.20;;;;;;7383616;19;20033;-77
2023/10/14 18:30:57;;;;;;;11.60;3.50;;;17.30;90.20;;;;;;7384033;19;20002;-77
2023/10/14 18:33:25;;;;;;;10.63;2.38;;;17.30;90.30;;;;;;7383740;19;20220;-76
2023/10/14 18:35:57;;;;;;;6.55;2.65;;;17.30;90.40;;;;;;7384191;19;20027;-76
2023/10/14 18:38:25;;;;;;;3.22;1.83;;;17.30;90.30;;;;;;7403632;19;20014;-77
2023/10/14 18:40:54;;;;;;;9.38;2.50;;;17.30;90.10;;;;;;7383286;19;20396;-77
2023/10/14 18:43:23;;;;;;;14.75;2.97;;;17.30;90.20;;;;;;7384604;19;20237;-77
2023/10/14 18:45:52;;;;;;;8.65;3.33;;;17.20;90.10;;;;;;7383873;19;20058;-77
2023/10/14 18:48:20;;;;;;;8.73;3.30;;;17.30;90.30;;;;;;7383595;19;20017;-77
2023/10/14 18:50:50;;;;;;;11.13;3.35;;;17.30;90.50;;;;;;7384132;19;20015;-76
2023/10/14 18:53:21;;;;;;;11.60;3.70;;;17.30;90.40;;;;;;7405295;19;20010;-76
2023/10/14 18:55:52;;;;;;;12.73;3.67;;;17.30;90.40;;;;;;7383315;19;20015;-77
2023/10/14 18:58:21;;;;;;;6.80;3.40;;;17.40;90.50;;;;;;7391820;19;20022;-78
2023/10/14 19:00:50;;;;;;;13.15;4.07;;;17.40;90.40;;;;;;7395736;19;20010;-77
2023/10/14 19:03:19;;;;;;;9.23;3.38;;;17.40;90.70;;;;;;7396031;19;20078;-78
2023/10/14 19:05:49;;;;;;;11.32;3.55;;;17.40;90.50;;;;;;7395230;19;20006;-77
2023/10/14 19:08:20;;;;;;;11.63;3.10;;;17.40;90.50;;;;;;7413405;19;20018;-76
2023/10/14 19:10:52;;;;;;;8.25;3.17;;;17.40;90.40;;;;;;7383867;19;20006;-78
2023/10/14 19:13:21;;;;;;;8.43;3.08;;;17.30;90.30;;;;;;7384984;19;20014;-78
2023/10/14 19:15:53;;;;;;;7.75;2.80;;;17.30;90.40;;;;;;7381817;19;20235;-79
2023/10/14 19:18:21;;;;;;;;;;;17.30;90.80;;;;;;7386185;19;20019;-76
2023/10/14 19:20:52;;;;;;;8.40;3.28;;;17.30;90.30;;;;;;7384561;19;20302;-80
2023/10/14 19:23:26;;;;;;;12.27;2.83;;;17.30;90.00;;;;;;7406673;19;20091;-77
2023/10/14 19:25:56;;;;;;;9.00;3.35;;;17.30;89.90;;;;;;7383924;19;20016;-76
2023/10/14 19:28:26;;;;;;;9.30;3.45;;;17.30;89.90;;;;;;7386348;19;20425;-76
2023/10/14 19:30:56;;;;;;;11.98;3.60;;;17.20;90.00;;;;;;7383832;19;20009;-76
2023/10/14 19:33:25;;;;;;;17.45;4.57;;;17.20;90.20;;;;;;7383246;19;20031;-80
2023/10/14 19:35:57;;;;;;;14.32;4.40;;;17.20;90.50;;;;;;7381210;19;20050;-78
2023/10/14 19:38:30;;;;;;;9.68;3.35;;;17.20;90.50;;;;;;7404084;19;20006;-78
2023/10/14 19:41:04;;;;;;;6.00;3.33;;;17.20;90.40;;;;;;7382013;19;20074;-78
2023/10/14 19:43:33;;;;;;;5.57;2.65;;;17.10;90.00;;;;;;7382020;19;20006;-78
2023/10/14 19:46:08;;;;;;;10.32;3.10;;;17.10;90.20;;;;;;7382850;19;20006;-77
2023/10/14 19:48:37;;;;;;;11.48;4.00;;;17.10;90.60;;;;;;7383109;19;20014;-77
2023/10/14 19:51:11;;;;;;;8.90;3.97;;;17.10;90.70;;;;;;7382886;19;20078;-78
2023/10/14 19:53:42;;;;;;;10.60;4.05;;;17.20;90.90;;;;;;7403292;19;20002;-77
2023/10/14 19:56:11;;;;;;;;;;;17.10;90.70;;;;;;7383750;19;19998;-78
2023/10/14 19:58:42;;;;;;;11.82;4.13;;;17.20;90.50;;;;;;7380297;19;20178;-77
2023/10/14 20:01:14;;;;;;;14.77;4.82;;;17.10;90.40;;;;;;7383272;19;20014;-78
2023/10/14 20:03:47;;;;;;;10.20;4.82;;;17.10;90.40;;;;;;7383998;19;20013;-80
2023/10/14 20:06:22;;;;;;;11.82;4.15;;;17.10;90.40;;;;;;7380983;19;20271;-76
2023/10/14 20:08:53;;;;;;;9.88;3.85;;;17.00;90.20;;;;;;7381491;19;20006;-78
2023/10/14 20:11:22;;;;;;;11.05;3.78;;;17.00;90.30;;;;;;7403318;19;20062;-78
2023/10/14 20:13:51;;;;;;;12.20;3.72;;;17.10;90.40;;;;;;7381832;19;20013;-77
2023/10/14 20:16:21;;;;;;;7.80;3.45;;;17.10;90.30;;;;;;7382635;19;20030;-77
2023/10/14 20:18:51;;;;;;;10.38;3.50;;;17.10;90.30;;;;;;7385088;19;20007;-79
2023/10/14 20:21:19;;;;;;;16.30;4.40;;;17.10;90.40;;;;;;7380354;19;20418;-78
2023/10/14 20:23:49;;;;;;;12.45;4.20;;;17.20;90.70;;;;;;7381438;19;20003;-78
2023/10/14 20:26:20;;;;;;;10.23;4.03;;;17.20;90.80;;;;;;7403018;19;20011;-77
2023/10/14 20:28:50;;;;;;;10.30;5.13;;;17.20;91.00;;;;;;7381277;19;20098;-79
2023/10/14 20:31:23;;;;;;;14.52;4.80;;;17.20;91.10;;;;;;7381607;19;20400;-76
2023/10/14 20:33:52;;;;;;;9.38;4.13;;;17.20;91.00;;;;;;7380499;19;20090;-79
2023/10/14 20:36:23;;;;;;;12.63;4.45;;;17.20;90.90;;;;;;7382150;19;20011;-76
2023/10/14 20:38:52;;;;;;;7.85;3.58;;;17.20;90.80;;;;;;7380234;19;20003;-77
2023/10/14 20:41:26;;;;;;;9.43;3.72;;;17.10;90.80;;;;;;7402391;19;20011;-79
2023/10/14 20:43:55;;;;;;;10.75;3.85;;;17.10;90.60;;;;;;7379462;19;20038;-77
2023/10/14 20:46:23;;;;;;;15.77;4.13;;;17.10;90.70;;;;;;7379587;19;20006;-76
2023/10/14 20:48:52;;;;;;;9.18;4.13;;;17.00;90.70;;;;;;7380761;19;20010;-77
2023/10/14 20:51:21;;;;;;;9.18;3.72;;;17.00;90.70;;;;;;7379997;19;20040;-77
2023/10/14 20:53:49;;;;;;;9.75;3.60;;;16.90;90.60;;;;;;7379204;19;20027;-76
2023/10/14 20:56:19;;;;;;;13.20;3.92;;;16.90;90.70;;;;;;7401675;19;20011;-76
2023/10/14 20:58:51;;;;;;;12.35;4.35;;;16.90;90.90;;;;;;7378169;19;20011;-76
2023/10/14 21:01:23;;;;;;;14.23;3.70;;;16.90;90.90;;;;;;7379192;19;20006;-77
2023/10/14 21:03:54;;;;;;;12.50;3.45;;;16.90;90.80;;;;;;7379781;19;20398;-77
2023/10/14 21:06:26;;;;;;;15.13;4.03;;;16.80;90.90;;;;;;7378130;19;20073;-77
2023/10/14 21:08:56;;;;;;;8.25;4.03;;;16.80;90.90;;;;;;7382977;19;20472;-77
2023/10/14 21:11:25;;;;;;;9.38;3.95;;;16.90;91.00;;;;;;7408720;19;20070;-77
2023/10/14 21:13:56;;;;;;;12.43;3.40;;;16.90;91.10;;;;;;7389224;19;20353;-76
2023/10/14 21:16:25;;;;;;;6.28;3.45;;;16.90;91.00;;;;;;7388650;19;20006;-79
2023/10/14 21:18:54;;;;;;;11.32;3.58;;;16.90;91.10;;;;;;7385457;19;20247;-78
2023/10/14 21:21:23;;;;;;;8.25;3.63;;;16.90;91.00;;;;;;7379924;19;20007;-77
2023/10/14 21:23:54;;;;;;;10.02;3.40;;;16.90;91.50;;;;;;7379279;19;20014;-77
2023/10/14 21:26:22;;;;;;;9.43;3.33;;;16.90;91.10;;;;;;7401174;19;20006;-76
2023/10/14 21:28:52;;;;;;;8.82;3.70;;;17.00;91.20;;;;;;7378503;19;20006;-77
2023/10/14 21:31:23;;;;;;;10.55;3.97;;;16.90;91.10;;;;;;7378633;19;20014;-77
2023/10/14 21:33:53;;;;;;;11.52;4.35;;;16.90;91.00;;;;;;7379716;19;20011;-77
2023/10/14 21:36:21;;;;;;;14.05;4.32;;;16.90;91.00;;;;;;7379749;19;20071;-78
2023/10/14 21:38:50;;;;;;;12.30;4.70;;;16.80;91.00;;;;;;7380442;19;20352;-76
2023/10/14 21:41:21;;;;;;;9.18;4.07;;;16.70;91.20;;;;;;7404970;19;20018;-76
2023/10/14 21:43:50;;;;;;;14.82;4.43;;;16.60;91.30;;;;;;7386449;19;20073;-80
2023/10/14 21:46:22;;;;;;;11.35;4.35;;;16.60;91.40;;;;;;7385805;19;20011;-76
2023/10/14 21:48:53;;;;;;;14.57;4.18;;;16.50;91.40;;;;;;7386022;19;20050;-76
2023/10/14 21:51:22;;;;;;;12.73;3.92;;;16.50;91.50;;;;;;7386201;19;19998;-75
2023/10/14 21:53:51;;;;;;;6.75;3.55;;;16.50;91.60;;;;;;7385686;19;20049;-76
2023/10/14 21:56:20;;;;;;;10.63;3.47;;;16.50;91.60;;;;;;7408212;19;20028;-80
2023/10/14 21:58:48;;;;;;;8.93;3.78;;;16.40;91.50;;;;;;7385106;19;20030;-76
2023/10/14 22:01:22;;;;;;;12.27;4.47;;;16.50;91.70;;;;;;7387920;19;20020;-76
2023/10/14 22:03:57;;;;;;;7.60;3.20;;;16.40;91.70;;;;;;7388094;19;19999;-77
2023/10/14 22:06:28;;;;;;;7.82;3.97;;;16.40;91.60;;;;;;7383751;19;20374;-76
2023/10/14 22:08:59;;;;;;;14.32;4.95;;;16.40;91.60;;;;;;7385077;19;20219;-76
2023/10/14 22:11:28;;;;;;;10.68;4.43;;;16.30;91.60;;;;;;7406503;19;20007;-76
2023/10/14 22:13:57;;;;;;;11.00;3.90;;;16.30;91.60;;;;;;7384415;19;20018;-75
2023/10/14 22:16:26;;;;;;;7.60;3.90;;;16.30;91.60;;;;;;7387516;19;20361;-76
2023/10/14 22:19:01;;;;;;;9.50;3.63;;;16.30;91.60;;;;;;7386508;19;20015;-76
2023/10/14 22:21:30;;;;;;;7.63;3.08;;;16.20;91.40;;;;;;7389114;19;20094;-76
2023/10/14 22:24:05;;;;;;;11.63;3.97;;;16.20;91.20;;;;;;7389014;19;20082;-77
2023/10/14 22:26:34;;;;;;;16.60;4.00;;;16.20;91.10;;;;;;7412228;19;20074;-76
2023/10/14 22:29:18;;;;;;;16.20;3.60;;;16.10;91.10;;;;;;7388151;19;20144;-77
2023/10/14 22:31:49;;;;;;;17.10;3.35;;;16.00;91.10;;;;;;7389535;19;20014;-77
2023/10/14 22:34:24;;;;;;;16.25;3.67;;;16.00;91.10;;;;;;7387924;19;20005;-76
2023/10/14 22:36:53;;;;;;;15.90;4.30;;;16.00;91.00;;;;;;7387249;19;20027;-76
2023/10/14 22:39:24;;;;;;;12.40;4.00;;;15.90;91.00;;;;;;7387519;19;20007;-76
2023/10/14 22:41:58;;;;;;;12.23;4.13;;;15.90;90.90;;;;;;7387386;19;19936;-76
2023/10/14 22:44:37;;;;;;;8.75;3.78;;;15.90;90.90;;;;;;7409781;19;20014;-77
2023/10/14 22:47:06;;;;;;;16.42;4.88;;;15.80;90.90;;;;;;7387332;19;20013;-76
2023/10/14 22:49:38;;;;;;;12.70;3.50;;;15.80;90.90;;;;;;7387453;19;20006;-75
2023/10/14 22:52:09;;;;;;;8.37;3.90;;;15.80;90.90;;;;;;7387517;19;20349;-75
2023/10/14 22:54:38;;;;;;;12.63;4.50;;;15.80;90.90;;;;;;7386647;19;20367;-75
2023/10/14 22:57:09;;;;;;;15.85;4.40;;;15.80;90.80;;;;;;7387240;19;20018;-76